Time;durP1;ratioP1;P1;durP2;ratioP2;P2;SDS_P1;SDS_P2;PMS_P1;PMS_P2;Temp;Humidity;BMP_temperature;BMP_pressure;BME280_temperature;BME280_humidity;BME280_pressure;Samples;Min_cycle;Max_cycle;Signal;HPM_P1;HPM_P2
2022/05/19 00:01:57;;;;;;;27.90;24.95;;;18.30;99.90;;;;;;5070944;28;20048;-53
2022/05/19 00:04:23;;;;;;;29.92;24.35;;;18.20;99.90;;;;;;5068499;28;20052;-49
2022/05/19 00:06:50;;;;;;;28.33;25.42;;;18.20;99.90;;;;;;5086576;28;20078;-51
2022/05/19 00:09:16;;;;;;;28.60;24.42;;;18.20;99.90;;;;;;5069315;28;20126;-52
2022/05/19 00:11:43;;;;;;;27.08;24.33;;;18.20;99.90;;;;;;5087271;28;20526;-50
2022/05/19 00:14:09;;;;;;;27.70;24.83;;;18.10;99.90;;;;;;5069566;28;20759;-49
2022/05/19 00:16:36;;;;;;;27.02;24.10;;;18.10;99.90;;;;;;5035466;28;20044;-53
2022/05/19 00:19:03;;;;;;;30.33;26.73;;;18.10;99.90;;;;;;5086984;28;20052;-50
2022/05/19 00:21:29;;;;;;;28.83;25.88;;;18.10;99.90;;;;;;5068594;28;20040;-54
2022/05/19 00:23:55;;;;;;;26.63;23.77;;;18.00;99.90;;;;;;5087094;28;20047;-54
2022/05/19 00:26:21;;;;;;;28.85;25.92;;;18.00;99.90;;;;;;5087181;28;20058;-51
2022/05/19 00:28:47;;;;;;;28.00;25.08;;;17.90;99.90;;;;;;5086734;28;20075;-50
2022/05/19 00:31:14;;;;;;;27.08;24.38;;;17.90;99.90;;;;;;5052350;28;20139;-52
2022/05/19 00:33:40;;;;;;;27.30;24.40;;;17.90;99.90;;;;;;5052090;28;20060;-49
2022/05/19 00:36:08;;;;;;;27.60;24.60;;;17.80;99.90;;;;;;5065697;28;20505;-52
2022/05/19 00:38:35;;;;;;;28.88;25.95;;;17.80;99.90;;;;;;5082227;28;20546;-59
2022/05/19 00:41:01;;;;;;;28.05;25.23;;;17.70;99.90;;;;;;5086145;28;20050;-59
2022/05/19 00:43:30;;;;;;;27.23;23.42;;;17.70;99.90;;;;;;5051852;28;20056;-59
2022/05/19 00:46:14;;;;;;;30.02;24.98;;;17.60;99.90;;;;;;5068958;28;20483;-52
2022/05/19 00:48:54;;;;;;;27.67;24.65;;;17.60;99.90;;;;;;5087154;28;20083;-49
2022/05/19 00:51:42;;;;;;;26.33;23.42;;;17.50;99.90;;;;;;5086483;28;20115;-47
2022/05/19 00:54:14;;;;;;;27.40;24.48;;;17.40;99.90;;;;;;5035379;28;20052;-60
2022/05/19 00:56:59;;;;;;;;;;;17.40;99.90;;;;;;5087857;28;20098;-60
2022/05/19 00:59:49;;;;;;;28.98;25.83;;;17.40;99.90;;;;;;5087160;28;20365;-60
2022/05/19 01:02:19;;;;;;;29.13;24.58;;;17.40;99.90;;;;;;5084893;28;20051;-60
2022/05/19 01:04:57;;;;;;;30.38;25.48;;;17.30;99.90;;;;;;5086842;28;20063;-52
2022/05/19 01:07:37;;;;;;;26.38;23.52;;;17.20;99.90;;;;;;5086442;28;20044;-60
2022/05/19 01:10:05;;;;;;;30.42;27.27;;;17.20;99.90;;;;;;5050320;28;20407;-60
2022/05/19 01:12:31;;;;;;;28.83;25.45;;;17.20;99.90;;;;;;5086407;28;20786;-52
2022/05/19 01:15:00;;;;;;;28.85;26.00;;;17.20;99.90;;;;;;5085435;28;20059;-51
2022/05/19 01:17:27;;;;;;;29.73;26.55;;;17.10;99.90;;;;;;5078474;28;20059;-49
2022/05/19 01:20:02;;;;;;;30.30;26.95;;;17.10;99.90;;;;;;5086521;28;20100;-49
2022/05/19 01:22:43;;;;;;;30.05;26.95;;;17.10;99.90;;;;;;5085680;28;20047;-50
2022/05/19 01:25:18;;;;;;;32.08;27.42;;;17.00;99.90;;;;;;5043841;28;20170;-49
2022/05/19 01:27:45;;;;;;;30.05;27.00;;;17.00;99.90;;;;;;5084890;28;20461;-48
2022/05/19 01:30:12;;;;;;;32.05;28.17;;;16.90;99.90;;;;;;5051138;28;20098;-50
2022/05/19 01:32:38;;;;;;;35.38;28.67;;;17.00;99.90;;;;;;5066393;28;20101;-50
2022/05/19 01:35:05;;;;;;;32.75;29.33;;;17.00;99.90;;;;;;5067266;28;20055;-59
2022/05/19 01:37:32;;;;;;;34.85;31.17;;;16.90;99.90;;;;;;5084208;28;20056;-60
2022/05/19 01:40:35;;;;;;;32.95;29.55;;;16.80;99.90;;;;;;5047709;28;20114;-60
2022/05/19 01:43:10;;;;;;;32.13;28.83;;;16.80;99.90;;;;;;5073515;28;20055;-59
2022/05/19 01:46:07;;;;;;;41.15;32.47;;;16.80;99.90;;;;;;5085722;28;20597;-59
2022/05/19 01:48:45;;;;;;;37.75;33.67;;;16.80;99.90;;;;;;5063825;28;20044;-60
2022/05/19 01:51:23;;;;;;;38.08;32.03;;;16.80;99.90;;;;;;5086454;28;20121;-47
2022/05/19 01:54:23;;;;;;;37.50;33.47;;;16.80;99.90;;;;;;5085615;28;20097;-48
2022/05/19 01:57:02;;;;;;;39.63;35.60;;;16.80;99.90;;;;;;5085883;28;20055;-51
2022/05/19 01:59:45;;;;;;;40.35;36.15;;;16.70;99.90;;;;;;5085881;28;20044;-48
2022/05/19 02:02:39;;;;;;;42.17;38.00;;;16.80;99.90;;;;;;5068035;28;20476;-59
2022/05/19 02:05:31;;;;;;;43.20;38.38;;;16.70;99.90;;;;;;5085154;28;20419;-59
2022/05/19 02:08:01;;;;;;;45.72;40.75;;;16.70;99.90;;;;;;5050295;28;20044;-59
2022/05/19 02:10:36;;;;;;;45.15;40.47;;;16.60;99.90;;;;;;5066358;28;20043;-60
2022/05/19 02:13:04;;;;;;;45.35;40.63;;;16.60;99.90;;;;;;5085472;28;20509;-59
2022/05/19 02:15:36;;;;;;;49.33;44.17;;;16.50;99.90;;;;;;5064410;28;20051;-60
2022/05/19 02:18:02;;;;;;;51.40;46.10;;;16.50;99.90;;;;;;5067454;28;20423;-59
2022/05/19 02:20:30;;;;;;;48.88;43.85;;;16.60;99.90;;;;;;5066205;28;20396;-50
2022/05/19 02:22:57;;;;;;;50.33;45.15;;;16.50;99.90;;;;;;5083642;28;20051;-60
2022/05/19 02:25:35;;;;;;;50.17;45.22;;;16.50;99.90;;;;;;5066444;28;20044;-50
2022/05/19 02:28:08;;;;;;;50.92;45.42;;;16.50;99.90;;;;;;5085347;28;20079;-50
2022/05/19 02:30:37;;;;;;;53.58;47.75;;;16.40;99.90;;;;;;5084752;28;20067;-50
2022/05/19 02:33:04;;;;;;;52.55;47.17;;;16.40;99.90;;;;;;5066799;28;20082;-50
2022/05/19 02:35:30;;;;;;;54.83;49.17;;;16.40;99.90;;;;;;5066405;28;20044;-60
2022/05/19 02:37:58;;;;;;;55.15;49.65;;;16.40;99.90;;;;;;5067071;28;20055;-59
2022/05/19 02:40:27;;;;;;;58.42;52.47;;;16.40;99.90;;;;;;5085222;28;20051;-59
2022/05/19 02:42:54;;;;;;;57.22;51.20;;;16.40;99.90;;;;;;5085257;28;20423;-59
2022/05/19 02:45:21;;;;;;;58.35;52.38;;;16.30;99.90;;;;;;5071866;28;20802;-60
2022/05/19 02:47:48;;;;;;;59.20;53.08;;;16.40;99.90;;;;;;5067336;28;20059;-50
2022/05/19 02:50:17;;;;;;;59.78;53.85;;;16.40;99.90;;;;;;5085277;28;20051;-48
2022/05/19 02:52:44;;;;;;;60.20;53.63;;;16.40;99.90;;;;;;5084965;28;20046;-49
2022/05/19 02:55:10;;;;;;;60.90;53.83;;;16.40;99.90;;;;;;5085185;28;20051;-56
2022/05/19 02:57:37;;;;;;;60.05;53.72;;;16.40;99.90;;;;;;5066681;28;20121;-47
2022/05/19 03:00:09;;;;;;;58.05;52.30;;;16.40;99.90;;;;;;5084975;28;20088;-53
2022/05/19 03:02:35;;;;;;;59.83;53.83;;;16.40;99.90;;;;;;5085177;28;20048;-52
2022/05/19 03:05:01;;;;;;;60.30;53.97;;;16.40;99.90;;;;;;5084879;28;20158;-54
2022/05/19 03:07:27;;;;;;;59.45;53.20;;;16.40;99.90;;;;;;5084645;28;20508;-50
2022/05/19 03:09:53;;;;;;;60.15;53.78;;;16.40;99.90;;;;;;5066467;28;20623;-60
2022/05/19 03:12:19;;;;;;;60.47;54.17;;;16.40;99.90;;;;;;5066711;28;20052;-59
2022/05/19 03:14:45;;;;;;;60.53;54.20;;;16.40;99.90;;;;;;5084409;28;20428;-60
2022/05/19 03:17:11;;;;;;;60.70;54.20;;;16.40;99.90;;;;;;5066419;28;20056;-59
2022/05/19 03:19:38;;;;;;;59.13;52.95;;;16.30;99.90;;;;;;5084585;28;20044;-60
2022/05/19 03:22:06;;;;;;;58.55;52.75;;;16.40;99.90;;;;;;5066889;28;20539;-59
2022/05/19 03:24:33;;;;;;;59.92;53.70;;;16.40;99.90;;;;;;5049733;28;20317;-60
2022/05/19 03:26:59;;;;;;;63.15;56.50;;;16.40;99.90;;;;;;5050193;28;20091;-60
2022/05/19 03:29:26;;;;;;;57.83;51.75;;;16.40;99.90;;;;;;5049526;28;20093;-60
2022/05/19 03:31:52;;;;;;;59.88;53.80;;;16.50;99.90;;;;;;5066440;28;20864;-60
2022/05/19 03:34:18;;;;;;;59.55;53.55;;;16.50;99.90;;;;;;5083072;28;20086;-61
2022/05/19 03:36:49;;;;;;;59.20;53.22;;;16.50;99.90;;;;;;5065823;28;20048;-62
2022/05/19 03:39:15;;;;;;;59.83;53.63;;;16.50;99.90;;;;;;5067803;28;20054;-60
2022/05/19 03:41:41;;;;;;;61.80;55.25;;;16.50;99.90;;;;;;5052713;28;20052;-60
2022/05/19 03:44:09;;;;;;;59.72;53.63;;;16.50;99.90;;;;;;5069839;28;20161;-59
2022/05/19 03:46:36;;;;;;;60.35;54.17;;;16.40;99.90;;;;;;5087806;28;20230;-60
2022/05/19 03:49:03;;;;;;;61.03;54.38;;;16.40;99.90;;;;;;5070090;28;20056;-51
2022/05/19 03:51:32;;;;;;;60.42;54.13;;;16.40;99.90;;;;;;5088297;28;20415;-52
2022/05/19 03:53:59;;;;;;;58.08;52.03;;;16.50;99.90;;;;;;5070069;28;20052;-47
2022/05/19 03:56:26;;;;;;;59.17;52.88;;;16.50;99.90;;;;;;5088037;28;20108;-49
2022/05/19 03:58:52;;;;;;;61.70;55.40;;;16.40;99.90;;;;;;5089113;28;20638;-51
2022/05/19 04:01:20;;;;;;;58.50;52.55;;;16.40;99.90;;;;;;5087942;28;20047;-53
2022/05/19 04:03:48;;;;;;;64.18;57.42;;;16.40;99.90;;;;;;5069620;28;20044;-54
2022/05/19 04:06:15;;;;;;;64.70;58.05;;;16.40;99.90;;;;;;5087350;28;20388;-52
2022/05/19 04:08:42;;;;;;;63.17;56.63;;;16.40;99.90;;;;;;5070023;28;20052;-51
2022/05/19 04:11:08;;;;;;;62.80;56.50;;;16.40;99.90;;;;;;5069381;28;20040;-49
2022/05/19 04:13:34;;;;;;;63.65;56.88;;;16.40;99.90;;;;;;5088024;28;20048;-50
2022/05/19 04:16:00;;;;;;;60.33;53.83;;;16.40;99.90;;;;;;5087586;28;20064;-53
2022/05/19 04:18:26;;;;;;;62.88;56.22;;;16.50;99.90;;;;;;5087199;28;20070;-52
2022/05/19 04:20:53;;;;;;;61.45;55.45;;;16.50;99.90;;;;;;5069058;28;20116;-59
2022/05/19 04:23:19;;;;;;;61.67;55.40;;;16.50;99.90;;;;;;5068707;28;20040;-59
2022/05/19 04:25:45;;;;;;;60.97;54.80;;;16.60;99.90;;;;;;5068459;28;20052;-49
2022/05/19 04:28:12;;;;;;;61.47;55.35;;;16.70;99.90;;;;;;5069349;28;20056;-49
2022/05/19 04:30:38;;;;;;;62.85;56.42;;;16.70;99.90;;;;;;5068657;28;20048;-48
2022/05/19 04:33:04;;;;;;;60.97;54.70;;;16.80;99.90;;;;;;5069284;28;20159;-47
2022/05/19 04:35:31;;;;;;;61.10;54.53;;;16.80;99.90;;;;;;5086795;28;20040;-50
2022/05/19 04:38:00;;;;;;;56.13;50.75;;;16.90;99.90;;;;;;5052335;28;20579;-53
2022/05/19 04:40:27;;;;;;;59.47;53.55;;;17.00;99.90;;;;;;5087081;28;20076;-59
2022/05/19 04:42:54;;;;;;;57.33;51.58;;;17.10;99.90;;;;;;5068330;28;20052;-60
2022/05/19 04:45:20;;;;;;;56.10;50.45;;;17.20;99.90;;;;;;5086580;28;20108;-51
2022/05/19 04:47:47;;;;;;;56.70;50.80;;;17.20;99.90;;;;;;5068934;28;20129;-51
2022/05/19 04:50:14;;;;;;;58.08;52.28;;;17.30;99.90;;;;;;5086615;28;20467;-47
2022/05/19 04:52:40;;;;;;;57.75;52.03;;;17.30;99.90;;;;;;5085935;28;20056;-50
2022/05/19 04:55:08;;;;;;;57.17;51.55;;;17.30;99.90;;;;;;5073839;28;20045;-53
2022/05/19 04:57:34;;;;;;;57.97;52.25;;;17.30;99.90;;;;;;5067227;28;20444;-53
2022/05/19 05:00:00;;;;;;;55.15;49.72;;;17.30;99.90;;;;;;5085274;28;20093;-50
2022/05/19 05:02:26;;;;;;;59.50;53.40;;;17.40;99.90;;;;;;5068426;28;20052;-51
2022/05/19 05:04:52;;;;;;;53.15;47.58;;;17.50;99.90;;;;;;5067952;28;20159;-52
2022/05/19 05:07:18;;;;;;;58.55;52.22;;;17.50;99.90;;;;;;5069104;28;20086;-52
2022/05/19 05:09:44;;;;;;;54.90;49.70;;;17.60;99.90;;;;;;5051838;28;20455;-48
2022/05/19 05:12:10;;;;;;;54.20;49.00;;;17.60;99.90;;;;;;5086662;28;20062;-60
2022/05/19 05:14:36;;;;;;;53.95;48.60;;;17.70;99.90;;;;;;5067729;28;20056;-60
2022/05/19 05:17:03;;;;;;;50.08;45.10;;;17.80;99.90;;;;;;5085727;28;20117;-60
2022/05/19 05:19:29;;;;;;;52.95;47.70;;;17.90;99.90;;;;;;5077996;28;20048;-54
2022/05/19 05:21:57;;;;;;;50.25;45.25;;;18.00;99.90;;;;;;5078803;28;20052;-48
2022/05/19 05:24:24;;;;;;;47.90;42.90;;;18.30;99.90;;;;;;5084580;28;20038;-51
2022/05/19 05:26:50;;;;;;;48.10;43.35;;;18.50;99.90;;;;;;5069188;28;20086;-54
2022/05/19 05:29:16;;;;;;;43.60;39.45;;;18.80;99.90;;;;;;5086904;28;20122;-48
2022/05/19 05:31:42;;;;;;;41.85;37.70;;;19.00;99.90;;;;;;5067113;28;20859;-53
2022/05/19 05:34:08;;;;;;;41.15;37.45;;;19.20;99.90;;;;;;5086237;28;20077;-54
2022/05/19 05:36:34;;;;;;;38.45;34.53;;;19.30;99.90;;;;;;5085802;28;20052;-54
2022/05/19 05:39:00;;;;;;;38.33;34.42;;;19.50;99.90;;;;;;5066400;28;20050;-46
2022/05/19 05:41:26;;;;;;;34.88;31.55;;;19.80;99.90;;;;;;5085988;28;20040;-47
2022/05/19 05:43:52;;;;;;;32.45;29.38;;;19.90;99.90;;;;;;5077461;28;20150;-52
2022/05/19 05:46:18;;;;;;;33.88;30.35;;;20.10;99.90;;;;;;5054447;28;20051;-51
2022/05/19 05:48:46;;;;;;;31.38;28.10;;;20.20;99.90;;;;;;5077430;28;20044;-52
2022/05/19 05:51:13;;;;;;;30.77;27.63;;;20.40;99.90;;;;;;5073647;28;20048;-49
2022/05/19 05:53:41;;;;;;;28.00;25.25;;;20.70;99.90;;;;;;5051629;28;20045;-49
2022/05/19 05:56:09;;;;;;;27.60;24.90;;;21.00;99.90;;;;;;5058845;28;20051;-55
2022/05/19 05:58:38;;;;;;;24.83;22.48;;;21.20;99.90;;;;;;5070797;28;20531;-50
2022/05/19 06:01:11;;;;;;;23.02;20.65;;;21.50;99.90;;;;;;5036767;28;20056;-61
2022/05/19 06:03:38;;;;;;;22.60;19.85;;;21.60;99.90;;;;;;5084366;28;20048;-61
2022/05/19 06:06:05;;;;;;;21.08;18.88;;;21.40;99.90;;;;;;5085136;28;20484;-61
2022/05/19 06:08:32;;;;;;;19.80;18.00;;;21.40;99.90;;;;;;5054239;28;20055;-60
2022/05/19 06:11:01;;;;;;;20.70;18.60;;;21.30;99.90;;;;;;5066806;28;20048;-60
2022/05/19 06:13:28;;;;;;;18.75;14.60;;;21.20;99.90;;;;;;5081772;28;20514;-59
2022/05/19 06:15:55;;;;;;;17.63;14.88;;;21.30;99.90;;;;;;5079090;28;20069;-60
2022/05/19 06:18:21;;;;;;;16.70;14.20;;;21.40;99.90;;;;;;5086536;28;20531;-59
2022/05/19 06:20:49;;;;;;;14.30;12.77;;;21.50;99.90;;;;;;5060219;28;20097;-61
2022/05/19 06:23:18;;;;;;;14.88;12.38;;;21.50;99.90;;;;;;5088102;28;20044;-60
2022/05/19 06:25:45;;;;;;;13.30;12.00;;;21.60;99.90;;;;;;5062286;28;20577;-60
2022/05/19 06:28:12;;;;;;;13.98;11.80;;;21.60;99.90;;;;;;5074993;28;20094;-60
2022/05/19 06:30:38;;;;;;;13.63;10.27;;;21.80;99.90;;;;;;5048255;28;20042;-61
2022/05/19 06:33:05;;;;;;;11.25;10.05;;;21.80;99.90;;;;;;5076238;28;20062;-59
2022/05/19 06:35:34;;;;;;;12.65;10.68;;;22.00;99.90;;;;;;5073385;28;20051;-59
2022/05/19 06:38:00;;;;;;;12.32;10.82;;;22.30;99.90;;;;;;5073987;28;20500;-57
2022/05/19 06:40:29;;;;;;;13.25;11.75;;;22.50;99.90;;;;;;5054934;28;20051;-58
2022/05/19 06:42:56;;;;;;;15.30;11.90;;;22.80;99.90;;;;;;5058243;28;20523;-56
2022/05/19 06:45:28;;;;;;;14.07;12.13;;;23.00;99.90;;;;;;5055537;28;20051;-50
2022/05/19 06:47:54;;;;;;;15.52;13.00;;;23.10;99.90;;;;;;5082278;28;20086;-50
2022/05/19 06:50:22;;;;;;;12.80;11.50;;;23.00;99.90;;;;;;5076385;28;20039;-57
2022/05/19 06:52:53;;;;;;;13.25;11.95;;;23.00;99.90;;;;;;5027709;28;20048;-58
2022/05/19 06:55:21;;;;;;;15.30;13.68;;;22.80;99.90;;;;;;5058393;28;20047;-51
2022/05/19 06:57:47;;;;;;;14.90;13.50;;;22.60;99.90;;;;;;5063291;28;20133;-58
2022/05/19 07:00:17;;;;;;;16.30;14.50;;;22.40;99.90;;;;;;5047708;28;20047;-58
2022/05/19 07:02:48;;;;;;;15.02;13.43;;;22.10;99.90;;;;;;5060234;28;20079;-58
2022/05/19 07:05:16;;;;;;;14.07;12.57;;;22.10;99.90;;;;;;5084135;28;20135;-47
2022/05/19 07:07:46;;;;;;;13.32;12.02;;;22.00;99.90;;;;;;5031460;28;20052;-49
2022/05/19 07:10:18;;;;;;;14.05;12.02;;;22.00;99.90;;;;;;5072552;28;20062;-58
2022/05/19 07:12:44;;;;;;;15.07;12.68;;;21.90;99.90;;;;;;5077373;28;20048;-59
2022/05/19 07:15:12;;;;;;;13.32;11.63;;;22.00;99.90;;;;;;5086821;28;20112;-58
2022/05/19 07:17:42;;;;;;;;;;;22.00;99.90;;;;;;5069814;28;20056;-55
2022/05/19 07:22:53;;;;;;;26.50;23.67;;;22.20;99.90;;;;;;5073524;28;20840;-60
2022/05/19 07:25:20;;;;;;;113.80;103.18;;;22.10;99.90;;;;;;5055755;28;20051;-57
2022/05/19 07:27:46;;;;;;;11.98;10.13;;;22.00;99.90;;;;;;5057093;28;20499;-57
2022/05/19 07:30:12;;;;;;;12.35;9.50;;;22.00;99.90;;;;;;5078872;28;20591;-57
2022/05/19 07:32:39;;;;;;;13.45;9.88;;;21.90;99.90;;;;;;5040121;28;20044;-57
2022/05/19 07:35:07;;;;;;;10.35;9.27;;;21.90;99.90;;;;;;5067286;28;20047;-47
2022/05/19 07:37:33;;;;;;;11.70;9.05;;;21.90;99.90;;;;;;5064838;28;20765;-59
2022/05/19 07:39:59;;;;;;;16.05;10.93;;;21.80;99.90;;;;;;5052795;28;20039;-59
2022/05/19 07:42:25;;;;;;;12.30;9.23;;;21.70;99.90;;;;;;5041052;28;20044;-56
2022/05/19 07:44:52;;;;;;;40.97;36.88;;;21.50;99.90;;;;;;5084878;28;20063;-59
2022/05/19 07:47:19;;;;;;;53.88;48.58;;;21.30;99.90;;;;;;5049888;28;20105;-60
2022/05/19 07:49:46;;;;;;;15.27;12.60;;;21.30;99.90;;;;;;5086144;28;20127;-60
2022/05/19 07:52:13;;;;;;;12.73;11.48;;;21.20;99.90;;;;;;5063370;28;20130;-60
2022/05/19 07:54:40;;;;;;;17.58;15.05;;;21.20;99.90;;;;;;5083770;28;20090;-60
2022/05/19 07:57:07;;;;;;;17.85;15.98;;;21.00;99.90;;;;;;5090591;28;20075;-59
2022/05/19 07:59:34;;;;;;;20.67;17.17;;;20.90;99.90;;;;;;5066802;28;20059;-60
2022/05/19 08:02:01;;;;;;;21.33;17.25;;;20.80;99.90;;;;;;5067570;28;20098;-59
2022/05/19 08:04:28;;;;;;;19.98;18.15;;;20.80;99.90;;;;;;5095287;28;20046;-60
2022/05/19 08:06:54;;;;;;;26.27;23.63;;;20.70;99.90;;;;;;5091223;28;20039;-60
2022/05/19 08:17:57;;;;;;;23.00;20.58;;;20.50;99.90;;;;;;5082226;28;20146;-59
2022/05/19 08:20:23;;;;;;;22.95;20.65;;;20.40;99.90;;;;;;5067700;28;20044;-60
2022/05/19 08:22:50;;;;;;;22.98;20.63;;;20.40;99.90;;;;;;5078999;28;20091;-59
2022/05/19 08:25:16;;;;;;;24.38;21.83;;;20.40;99.90;;;;;;5088191;28;20867;-59
2022/05/19 08:27:47;;;;;;;25.23;20.90;;;20.40;99.90;;;;;;5046109;28;20121;-59
2022/05/19 08:30:13;;;;;;;21.13;19.08;;;20.50;99.90;;;;;;5069687;28;20592;-59
2022/05/19 08:32:39;;;;;;;21.98;19.88;;;20.50;99.90;;;;;;5079074;28;20040;-59
2022/05/19 08:35:07;;;;;;;20.35;18.27;;;20.60;99.90;;;;;;5085468;28;20132;-59
2022/05/19 08:37:33;;;;;;;19.42;17.42;;;20.80;99.90;;;;;;5083234;28;20048;-53
2022/05/19 08:40:00;;;;;;;19.98;17.88;;;20.90;99.90;;;;;;5067373;28;20032;-51
2022/05/19 08:42:30;;;;;;;25.63;22.98;;;21.10;99.90;;;;;;5088198;28;20463;-58
2022/05/19 08:45:01;;;;;;;36.22;31.33;;;21.20;99.90;;;;;;5090161;28;20044;-59
2022/05/19 08:47:30;;;;;;;45.77;41.20;;;21.40;99.90;;;;;;5082225;28;20056;-59
2022/05/19 08:50:03;;;;;;;23.17;20.77;;;21.50;99.90;;;;;;5084296;28;20295;-59
2022/05/19 08:52:40;;;;;;;18.27;16.58;;;21.70;99.90;;;;;;5082968;28;20048;-59
2022/05/19 08:55:08;;;;;;;21.33;19.33;;;21.90;99.90;;;;;;5068594;28;20040;-59
2022/05/19 08:57:56;;;;;;;24.10;21.67;;;22.00;99.90;;;;;;5066137;28;20048;-59
2022/05/19 09:00:54;;;;;;;22.17;19.92;;;22.10;99.90;;;;;;5065755;28;20048;-59
2022/05/19 09:03:46;;;;;;;22.10;19.90;;;22.30;99.90;;;;;;5065250;28;20036;-59
2022/05/19 09:06:34;;;;;;;21.20;18.90;;;22.30;99.90;;;;;;5064114;28;20047;-59
2022/05/19 09:09:19;;;;;;;18.40;16.60;;;22.40;99.90;;;;;;5065341;28;20097;-60
2022/05/19 09:11:57;;;;;;;20.23;17.45;;;22.60;99.90;;;;;;5092651;28;20051;-59
2022/05/19 09:14:28;;;;;;;19.98;17.88;;;22.90;99.90;;;;;;5063287;28;20083;-59
2022/05/19 09:17:02;;;;;;;;;;;23.30;99.90;;;;;;5090406;28;20040;-58
2022/05/19 09:19:46;;;;;;;29.13;26.17;;;23.50;99.90;;;;;;5085594;28;19924;-59
2022/05/19 09:22:19;;;;;;;18.85;15.88;;;23.90;99.90;;;;;;5063463;28;20052;-59
2022/05/19 09:24:48;;;;;;;19.80;17.90;;;24.00;99.90;;;;;;5089309;28;20102;-59
2022/05/19 09:27:16;;;;;;;16.38;12.20;;;24.10;99.90;;;;;;5083882;28;20522;-59
2022/05/19 09:29:55;;;;;;;17.92;16.20;;;24.30;99.90;;;;;;5083631;28;20690;-60
2022/05/19 09:32:34;;;;;;;14.45;13.05;;;24.40;99.90;;;;;;5084918;28;20056;-60
2022/05/19 09:35:18;;;;;;;17.75;15.85;;;24.50;99.90;;;;;;5051122;28;20496;-60
2022/05/19 09:38:00;;;;;;;59.97;54.53;;;25.00;99.90;;;;;;5099283;28;20053;-60
2022/05/19 09:40:30;;;;;;;14.82;13.30;;;25.40;99.90;;;;;;5068404;28;20101;-60
2022/05/19 09:43:06;;;;;;;18.58;16.77;;;25.50;99.90;;;;;;5089975;28;20039;-53
2022/05/19 09:45:43;;;;;;;15.88;14.38;;;25.70;99.90;;;;;;5061001;28;20344;-61
2022/05/19 09:48:11;;;;;;;17.17;15.57;;;26.10;99.90;;;;;;5066597;28;20055;-61
2022/05/19 09:50:52;;;;;;;18.05;16.15;;;26.30;99.90;;;;;;5081261;28;20055;-61
2022/05/19 09:53:27;;;;;;;15.48;14.07;;;26.60;99.90;;;;;;5080449;28;20052;-61
2022/05/19 09:56:01;;;;;;;15.80;14.30;;;26.90;99.90;;;;;;5079326;28;20083;-61
2022/05/19 09:58:31;;;;;;;16.63;14.82;;;27.20;99.90;;;;;;5063747;28;20088;-60
2022/05/19 10:01:03;;;;;;;14.60;13.20;;;27.10;99.90;;;;;;5048343;28;20050;-60
2022/05/19 10:03:53;;;;;;;16.65;14.63;;;26.90;99.90;;;;;;5094341;28;20089;-61
2022/05/19 10:06:23;;;;;;;20.27;18.38;;;26.70;99.90;;;;;;5077105;28;20137;-52
2022/05/19 10:09:06;;;;;;;16.25;14.68;;;26.80;99.90;;;;;;5081239;28;20055;-52
2022/05/19 10:11:32;;;;;;;22.48;20.35;;;26.70;99.90;;;;;;5065590;28;20087;-53
2022/05/19 10:14:07;;;;;;;17.52;15.82;;;26.80;99.90;;;;;;5084187;28;20058;-53
2022/05/19 10:16:33;;;;;;;16.65;14.95;;;26.70;99.90;;;;;;5080579;28;20083;-49
2022/05/19 10:19:17;;;;;;;16.50;14.77;;;26.60;99.90;;;;;;5096881;28;20052;-52
2022/05/19 10:22:09;;;;;;;22.10;19.95;;;26.50;99.90;;;;;;5080878;28;20693;-53
2022/05/19 10:24:44;;;;;;;16.30;14.75;;;27.00;99.90;;;;;;5091384;28;20044;-52
2022/05/19 10:33:29;;;;;;;16.73;15.02;;;27.00;99.90;;;;;;5073076;28;20050;-59
2022/05/19 10:36:17;;;;;;;15.73;14.25;;;27.10;99.90;;;;;;5076715;28;20056;-60
2022/05/19 10:39:10;;;;;;;24.00;21.55;;;26.90;99.90;;;;;;5077636;28;20055;-60
2022/05/19 10:41:44;;;;;;;16.50;15.05;;;27.20;99.90;;;;;;5086644;28;20122;-60
2022/05/19 10:44:39;;;;;;;15.90;14.15;;;27.30;99.90;;;;;;5070556;28;20759;-60
2022/05/19 10:47:40;;;;;;;14.63;13.15;;;27.70;99.90;;;;;;5047025;28;20575;-60
2022/05/19 10:50:43;;;;;;;38.53;35.05;;;27.90;99.90;;;;;;5062773;28;20144;-60
2022/05/19 10:53:31;;;;;;;12.73;11.48;;;28.70;99.90;;;;;;5050085;28;20048;-51
2022/05/19 10:56:03;;;;;;;17.77;16.08;;;28.80;99.90;;;;;;5070358;28;20529;-49
2022/05/19 10:58:43;;;;;;;12.63;9.98;;;28.30;99.90;;;;;;5057639;28;20461;-60
2022/05/19 11:01:24;;;;;;;14.57;9.88;;;28.70;99.90;;;;;;5047031;28;20083;-60
2022/05/19 11:04:00;;;;;;;10.93;8.95;;;29.00;99.90;;;;;;5083479;28;20055;-58
2022/05/19 11:07:07;;;;;;;10.30;9.32;;;29.10;99.90;;;;;;5082612;28;20476;-53
2022/05/19 11:09:57;;;;;;;10.23;8.77;;;29.10;99.90;;;;;;5060398;28;20040;-50
2022/05/19 11:12:34;;;;;;;12.90;9.33;;;29.20;99.90;;;;;;5062283;28;20396;-49
2022/05/19 11:15:25;;;;;;;9.13;8.20;;;29.70;99.00;;;;;;5089286;28;20130;-52
2022/05/19 11:18:13;;;;;;;10.40;8.13;;;29.90;99.90;;;;;;5082152;28;20052;-54
2022/05/19 11:20:54;;;;;;;9.13;8.13;;;29.80;96.70;;;;;;5094730;28;20035;-51
2022/05/19 11:23:39;;;;;;;9.32;8.38;;;29.80;96.80;;;;;;5060259;28;20044;-48
2022/05/19 11:26:32;;;;;;;7.30;5.75;;;29.90;96.60;;;;;;5071119;28;20543;-53
2022/05/19 11:29:13;;;;;;;6.80;4.38;;;30.10;97.60;;;;;;5088741;28;20483;-52
2022/05/19 11:31:54;;;;;;;4.50;3.63;;;30.30;96.60;;;;;;5079792;28;20043;-51
2022/05/19 11:34:35;;;;;;;6.30;4.55;;;30.50;91.90;;;;;;5059869;28;20765;-55
2022/05/19 11:37:14;;;;;;;5.53;4.13;;;30.50;88.40;;;;;;5060312;28;20055;-51
2022/05/19 11:40:04;;;;;;;29.77;14.18;;;30.50;81.40;;;;;;5072861;28;20048;-49
2022/05/19 11:42:45;;;;;;;7.22;6.38;;;30.70;82.60;;;;;;5086044;28;20086;-54
2022/05/19 11:45:37;;;;;;;9.85;8.73;;;30.70;76.10;;;;;;5067657;28;20048;-54
2022/05/19 11:57:39;;;;;;;31.30;28.38;;;30.10;72.80;;;;;;5078418;28;20397;-59
2022/05/19 12:00:08;;;;;;;9.60;8.57;;;30.00;79.80;;;;;;5081015;28;20051;-59
2022/05/19 12:03:02;;;;;;;6.95;5.30;;;29.70;82.50;;;;;;5046728;28;20047;-60
2022/05/19 12:05:33;;;;;;;6.78;6.10;;;29.70;74.50;;;;;;5092182;28;20119;-48
2022/05/19 12:08:19;;;;;;;7.65;5.75;;;29.30;81.90;;;;;;5088418;28;20040;-49
2022/05/19 12:10:53;;;;;;;5.63;3.72;;;29.10;87.30;;;;;;5082732;28;20540;-48
2022/05/19 12:13:32;;;;;;;5.70;3.72;;;29.10;89.50;;;;;;5064260;28;20044;-59
2022/05/19 12:16:08;;;;;;;5.13;3.72;;;28.90;88.60;;;;;;5084460;28;20114;-60
2022/05/19 12:18:36;;;;;;;5.25;3.95;;;28.80;94.90;;;;;;5106962;28;20056;-59
2022/05/19 12:21:02;;;;;;;7.32;4.97;;;28.60;95.30;;;;;;5086361;28;20039;-60
2022/05/19 12:23:35;;;;;;;5.47;4.00;;;28.40;93.00;;;;;;5048124;28;20040;-60
2022/05/19 12:26:16;;;;;;;5.90;3.88;;;28.10;95.10;;;;;;5097924;28;20059;-59
2022/05/19 12:29:32;;;;;;;4.65;3.50;;;28.00;97.80;;;;;;5086219;28;20044;-59
2022/05/19 12:32:09;;;;;;;6.15;4.25;;;27.90;97.30;;;;;;5067471;28;20043;-50
2022/05/19 12:34:47;;;;;;;5.75;4.78;;;27.70;97.10;;;;;;5086424;28;20181;-49
2022/05/19 12:37:33;;;;;;;11.98;4.70;;;27.60;96.30;;;;;;5087686;28;20052;-52
2022/05/19 12:40:18;;;;;;;6.15;4.63;;;27.30;97.80;;;;;;5078539;28;20047;-50
2022/05/19 12:42:44;;;;;;;5.55;4.50;;;27.00;99.50;;;;;;5101294;28;20043;-46
2022/05/19 12:45:25;;;;;;;10.40;4.68;;;26.90;99.90;;;;;;5090427;28;20059;-49
2022/05/19 12:48:01;;;;;;;5.55;4.70;;;26.70;99.90;;;;;;5066683;28;20079;-51
2022/05/19 12:51:00;;;;;;;6.47;4.43;;;26.50;99.90;;;;;;5077046;28;20500;-59
2022/05/19 12:53:27;;;;;;;6.43;3.85;;;26.40;99.90;;;;;;5080861;28;20932;-49
2022/05/19 12:55:56;;;;;;;6.45;4.78;;;26.20;99.90;;;;;;5067349;28;20910;-58
2022/05/19 12:58:39;;;;;;;6.40;4.40;;;26.10;99.90;;;;;;5067178;28;20052;-49
2022/05/19 13:01:33;;;;;;;8.40;5.15;;;25.90;99.90;;;;;;5065387;28;20047;-45
2022/05/19 13:04:12;;;;;;;7.43;4.97;;;25.60;99.90;;;;;;5068691;28;20549;-59
2022/05/19 13:06:51;;;;;;;7.72;5.65;;;25.40;99.90;;;;;;5087312;28;20055;-46
2022/05/19 13:09:21;;;;;;;8.77;5.60;;;25.10;99.90;;;;;;5066965;28;20705;-48
2022/05/19 13:11:54;;;;;;;6.65;4.88;;;24.80;99.90;;;;;;5048251;28;20084;-58
2022/05/19 13:14:27;;;;;;;6.00;4.15;;;24.70;99.90;;;;;;5071849;28;20059;-58
2022/05/19 13:16:55;;;;;;;9.85;4.57;;;24.30;99.90;;;;;;5048753;28;20052;-57
2022/05/19 13:19:30;;;;;;;17.35;7.97;;;24.10;99.90;;;;;;5082202;28;20044;-58
2022/05/19 13:22:02;;;;;;;17.77;7.85;;;23.60;99.90;;;;;;5086678;28;20161;-59
2022/05/19 13:24:29;;;;;;;;;;;22.70;99.90;;;;;;5066831;28;20098;-59